Whale Cove, Canada
Current Conditions -  °F | °C
As of 10:00 AM on Wednesday 26 Nov 2014 (Local Time) from CYRT Reporting Station
Ice Pellets Ice Pellets  
Wind Chill: -33°   Ceiling: 25000
Heat Index: -9°   Visibility: 15mi
Dew Point: -17°   Wind: 17mph
Humidity: 71%   Direction: 260°W
Pressure: 29.92"   Gusts: NA
Location:  62.17°N, 92.58°W
Report Text: CYRT 261600Z 26015KT 15SM IC OVC250 M23/M27 A2992 RMK CI8 SLP137
Loading
Personal Weather Stations






























Interactive Weather Map New forecast layout! Learn more

10-Day Weather Forecast

Advertisements
Track Severe Weather on mobile